Time;durP1;ratioP1;P1;durP2;ratioP2;P2;SDS_P1;SDS_P2;PMS_P1;PMS_P2;Temp;Humidity;BMP_temperature;BMP_pressure;BME280_temperature;BME280_humidity;BME280_pressure;Samples;Min_cycle;Max_cycle;Signal;HPM_P1;HPM_P2
2023/08/28 00:03:30;;;;;;;3.75;2.88;;;17.70;99.90;;;;;;9656962;23;20161;-90
2023/08/28 00:07:16;;;;;;;2.63;2.08;;;17.70;99.90;;;;;;9656870;23;20168;-90
2023/08/28 00:11:02;;;;;;;5.60;2.72;;;17.80;99.90;;;;;;9656746;23;20185;-89
2023/08/28 00:14:48;;;;;;;3.25;2.28;;;17.90;99.90;;;;;;9656691;23;20291;-89
2023/08/28 00:18:34;;;;;;;4.78;2.42;;;17.80;99.90;;;;;;9681599;23;20157;-90
2023/08/28 00:22:20;;;;;;;6.15;3.00;;;17.80;99.90;;;;;;9657208;23;20161;-89
2023/08/28 00:26:06;;;;;;;4.97;2.33;;;17.70;99.90;;;;;;9684146;23;20165;-90
2023/08/28 00:29:51;;;;;;;3.22;2.38;;;17.60;99.90;;;;;;9658569;23;20182;-89
2023/08/28 00:33:37;;;;;;;3.63;2.75;;;17.70;99.90;;;;;;9658621;23;20188;-89
2023/08/28 00:37:22;;;;;;;5.10;2.28;;;17.70;99.90;;;;;;9658706;23;20536;-89
2023/08/28 00:41:08;;;;;;;4.70;2.65;;;17.70;99.90;;;;;;9658811;23;20725;-89
2023/08/28 00:44:54;;;;;;;3.33;2.25;;;17.70;99.90;;;;;;9687710;23;20153;-89
2023/08/28 00:48:39;;;;;;;2.63;2.13;;;17.70;99.90;;;;;;9632309;23;1222955;-89
2023/08/28 00:52:25;;;;;;;8.30;2.47;;;17.70;99.90;;;;;;9660958;23;20180;-89
2023/08/28 00:56:11;;;;;;;6.78;3.08;;;17.80;99.90;;;;;;9660772;23;20184;-88
2023/08/28 00:59:57;;;;;;;3.50;2.83;;;17.80;99.90;;;;;;9660826;23;20487;-88
2023/08/28 01:03:43;;;;;;;3.13;2.40;;;17.70;99.90;;;;;;9660702;23;20158;-89
2023/08/28 01:07:51;;;;;;;4.07;2.55;;;17.70;99.90;;;;;;9660662;23;20161;-89
2023/08/28 01:11:52;;;;;;;3.83;2.20;;;17.70;99.90;;;;;;9660525;23;20177;-89
2023/08/28 01:15:39;;;;;;;2.85;2.40;;;17.60;99.90;;;;;;9687272;23;20144;-89
2023/08/28 01:19:37;;;;;;;2.67;2.13;;;17.50;99.90;;;;;;9660193;23;20273;-89
2023/08/28 01:23:27;;;;;;;2.80;1.90;;;17.40;99.90;;;;;;9660869;23;20157;-89
2023/08/28 01:27:14;;;;;;;2.65;2.25;;;17.40;99.90;;;;;;9661018;23;20161;-89
2023/08/28 01:31:04;;;;;;;3.33;2.00;;;17.50;99.90;;;;;;9660598;23;20181;-89
2023/08/28 01:34:49;;;;;;;2.53;2.20;;;17.60;99.90;;;;;;9685588;23;20215;-89
2023/08/28 01:38:45;;;;;;;2.60;2.10;;;17.70;99.90;;;;;;9660668;23;20158;-89
2023/08/28 01:42:32;;;;;;;4.72;2.00;;;17.80;99.90;;;;;;9660241;23;20156;-89
2023/08/28 01:46:19;;;;;;;4.47;1.92;;;17.80;99.90;;;;;;9660356;23;20161;-89
2023/08/28 01:50:05;;;;;;;2.20;1.90;;;17.80;99.90;;;;;;9685301;23;20204;-88
2023/08/28 01:53:52;;;;;;;2.00;1.73;;;17.80;99.90;;;;;;9660036;23;20196;-88
2023/08/28 01:57:38;;;;;;;3.47;1.80;;;17.80;99.90;;;;;;9660019;23;20500;-89
2023/08/28 02:01:25;;;;;;;2.72;2.05;;;17.80;99.90;;;;;;9685132;23;20243;-89
2023/08/28 02:05:10;;;;;;;2.35;1.58;;;17.80;99.90;;;;;;9659920;23;20161;-89
2023/08/28 02:08:56;;;;;;;2.40;1.90;;;17.80;99.90;;;;;;9659662;23;20177;-89
2023/08/28 02:12:42;;;;;;;3.67;1.95;;;17.80;99.90;;;;;;9659593;23;20219;-89
2023/08/28 02:16:27;;;;;;;2.97;1.83;;;17.80;99.90;;;;;;9686828;23;20165;-88
2023/08/28 02:20:13;;;;;;;2.78;1.75;;;17.80;99.90;;;;;;9659716;23;20250;-88
2023/08/28 02:24:01;;;;;;;2.67;1.88;;;17.80;99.90;;;;;;9659721;23;20621;-89
2023/08/28 02:27:46;;;;;;;2.30;1.48;;;17.70;99.90;;;;;;9660064;23;20149;-89
2023/08/28 02:31:32;;;;;;;2.15;1.95;;;17.80;99.90;;;;;;9686484;23;20188;-88
2023/08/28 02:35:18;;;;;;;2.95;1.90;;;17.70;99.90;;;;;;9659434;23;20628;-88
2023/08/28 02:39:04;;;;;;;2.85;2.00;;;17.70;99.90;;;;;;9659471;23;20501;-89
2023/08/28 02:42:50;;;;;;;1.88;1.75;;;17.70;99.90;;;;;;9659577;23;20157;-89
2023/08/28 02:46:36;;;;;;;2.90;1.88;;;17.70;99.90;;;;;;9659149;23;20161;-89
2023/08/28 02:50:21;;;;;;;1.90;1.70;;;17.70;99.90;;;;;;9686126;23;20193;-89
2023/08/28 02:54:08;;;;;;;4.85;2.10;;;17.70;99.90;;;;;;9659508;23;20181;-88
2023/08/28 02:57:54;;;;;;;3.85;2.08;;;17.60;99.90;;;;;;9686424;23;20150;-89
2023/08/28 03:01:39;;;;;;;3.55;2.72;;;17.60;99.90;;;;;;9659215;23;20654;-89
2023/08/28 03:05:25;;;;;;;1.95;1.73;;;17.60;99.90;;;;;;9659313;23;20180;-88
2023/08/28 03:09:12;;;;;;;4.22;2.00;;;17.60;99.90;;;;;;9684663;23;20188;-89
2023/08/28 03:12:58;;;;;;;2.78;2.00;;;17.50;99.90;;;;;;9659486;23;20208;-89
2023/08/28 03:16:43;;;;;;;7.65;2.58;;;17.50;99.90;;;;;;9686315;23;20153;-89
2023/08/28 03:20:31;;;;;;;2.10;1.90;;;17.50;99.90;;;;;;9659534;23;20181;-88
2023/08/28 03:24:17;;;;;;;9.38;2.10;;;17.50;99.90;;;;;;9659312;23;20530;-89
2023/08/28 03:28:07;;;;;;;2.47;1.77;;;17.50;99.90;;;;;;9685892;23;20153;-89
2023/08/28 03:31:53;;;;;;;3.70;1.80;;;17.40;99.90;;;;;;9685715;23;20244;-89
2023/08/28 03:35:38;;;;;;;3.25;2.20;;;17.40;99.90;;;;;;9658827;23;20157;-89
2023/08/28 03:39:24;;;;;;;8.07;2.20;;;17.40;99.90;;;;;;9658777;23;20259;-89
2023/08/28 03:43:10;;;;;;;1.98;1.77;;;17.40;99.90;;;;;;9685901;23;20159;-89
2023/08/28 03:46:55;;;;;;;4.35;2.10;;;17.40;99.90;;;;;;9658790;23;20248;-89
2023/08/28 03:50:42;;;;;;;3.03;1.90;;;17.40;99.90;;;;;;9683989;23;20247;-89
2023/08/28 03:54:28;;;;;;;3.30;2.20;;;17.40;99.90;;;;;;9658687;23;20770;-90
2023/08/28 03:58:13;;;;;;;4.13;2.28;;;17.40;99.90;;;;;;9660601;23;20604;-88
2023/08/28 04:02:02;;;;;;;9.82;2.67;;;17.40;99.90;;;;;;9661941;23;20575;-89
2023/08/28 04:05:48;;;;;;;6.10;3.53;;;17.40;99.90;;;;;;9662040;23;20204;-89
2023/08/28 04:09:34;;;;;;;2.97;2.50;;;17.30;99.90;;;;;;9661581;23;20528;-89
2023/08/28 04:13:19;;;;;;;3.33;2.10;;;17.30;99.90;;;;;;9661989;23;20185;-88
2023/08/28 04:17:05;;;;;;;4.07;2.42;;;17.30;99.90;;;;;;9661725;23;20483;-89
2023/08/28 04:20:51;;;;;;;3.03;2.35;;;17.30;99.90;;;;;;9662033;23;20184;-89
2023/08/28 04:24:36;;;;;;;3.80;2.10;;;17.30;99.90;;;;;;9688495;23;20181;-90
2023/08/28 04:28:22;;;;;;;2.40;2.15;;;17.30;99.90;;;;;;9664297;23;20169;-89
2023/08/28 05:00:02;;;;;;;5.15;1.77;;;17.20;99.90;;;;;;9689787;22;20435;-93
2023/08/28 13:32:18;;;;;;;4.57;4.00;;;17.50;99.90;;;;;;9742907;22;20172;-86
2023/08/28 13:36:08;;;;;;;3.75;3.45;;;17.50;99.90;;;;;;9636339;23;20193;-86
2023/08/28 13:39:54;;;;;;;4.18;3.83;;;17.50;99.90;;;;;;9615533;23;20225;-86
2023/08/28 13:43:40;;;;;;;6.05;3.42;;;17.50;99.90;;;;;;9612031;23;20178;-84
2023/08/28 13:47:27;;;;;;;4.68;3.80;;;17.50;99.90;;;;;;9637022;23;20154;-88
2023/08/28 13:51:13;;;;;;;4.25;3.85;;;17.50;99.90;;;;;;9611384;23;20689;-87
2023/08/28 13:55:04;;;;;;;4.60;4.20;;;17.50;99.90;;;;;;9609376;23;20556;-87
2023/08/28 13:58:50;;;;;;;3.90;3.60;;;17.50;99.90;;;;;;9611086;23;20138;-87
2023/08/28 14:02:36;;;;;;;3.78;3.47;;;17.50;99.90;;;;;;9612192;23;20288;-88
2023/08/28 14:06:22;;;;;;;4.13;3.72;;;17.50;99.90;;;;;;9635387;23;20205;-87
2023/08/28 14:10:08;;;;;;;5.25;4.75;;;17.50;99.90;;;;;;9613137;23;20152;-87
2023/08/28 14:13:55;;;;;;;4.53;3.60;;;17.50;99.90;;;;;;9639371;23;20185;-87
2023/08/28 14:17:41;;;;;;;3.42;3.17;;;17.50;99.90;;;;;;9637863;23;20153;-87
2023/08/28 14:21:26;;;;;;;4.18;2.80;;;17.50;99.90;;;;;;9639813;23;20154;-87
2023/08/28 14:25:12;;;;;;;3.00;2.70;;;17.50;99.90;;;;;;9637944;23;20204;-87
2023/08/28 14:28:57;;;;;;;3.10;2.72;;;17.50;99.90;;;;;;9612302;23;20161;-87
2023/08/28 14:32:46;;;;;;;2.40;2.20;;;17.50;99.90;;;;;;9638037;23;20196;-87
2023/08/28 14:36:31;;;;;;;2.85;2.30;;;17.50;99.90;;;;;;9610324;23;20308;-87
2023/08/28 14:40:17;;;;;;;3.35;2.42;;;17.40;99.90;;;;;;9611660;23;20161;-87
2023/08/28 14:44:03;;;;;;;2.45;2.25;;;17.40;99.90;;;;;;9642850;23;20201;-86
2023/08/28 14:47:48;;;;;;;1.83;1.73;;;17.40;99.90;;;;;;9636771;23;20232;-85
2023/08/28 14:51:34;;;;;;;2.65;2.45;;;17.40;99.90;;;;;;9613111;23;20158;-86
2023/08/28 14:55:20;;;;;;;3.17;2.40;;;17.40;99.90;;;;;;9638461;23;20201;-86
2023/08/28 14:59:05;;;;;;;2.50;2.30;;;17.30;99.90;;;;;;9637408;23;20150;-87
2023/08/28 15:02:52;;;;;;;2.28;1.52;;;17.30;99.90;;;;;;9612775;23;20162;-87
2023/08/28 15:06:38;;;;;;;4.07;3.10;;;17.30;99.90;;;;;;9610990;23;20205;-86
2023/08/28 15:10:23;;;;;;;3.90;3.50;;;17.30;99.90;;;;;;9638768;23;20142;-86
2023/08/28 15:14:09;;;;;;;7.28;2.70;;;17.20;99.90;;;;;;9636962;23;20197;-86
2023/08/28 15:17:55;;;;;;;2.92;2.00;;;17.20;99.90;;;;;;9612830;23;20158;-86
2023/08/28 15:21:40;;;;;;;1.90;1.80;;;17.20;99.90;;;;;;9639481;23;20158;-85
2023/08/28 15:25:26;;;;;;;1.63;1.42;;;17.20;99.90;;;;;;9611767;23;20516;-86
2023/08/28 15:29:12;;;;;;;1.70;1.60;;;17.20;99.90;;;;;;9638526;23;20185;-86
2023/08/28 15:32:58;;;;;;;2.85;1.30;;;17.20;99.90;;;;;;9637843;23;20525;-86
2023/08/28 15:36:43;;;;;;;1.48;1.38;;;17.10;99.90;;;;;;9637562;23;20521;-86
2023/08/28 15:40:29;;;;;;;1.73;1.50;;;17.10;99.90;;;;;;9637869;23;20158;-86
2023/08/28 15:44:14;;;;;;;3.22;1.90;;;17.10;99.90;;;;;;9638129;23;20197;-86
2023/08/28 15:48:00;;;;;;;4.10;2.60;;;17.10;99.90;;;;;;9612284;23;20158;-86
2023/08/28 15:51:46;;;;;;;3.72;3.05;;;17.10;99.90;;;;;;9637874;23;20165;-87
2023/08/28 15:55:31;;;;;;;4.75;3.50;;;17.10;99.90;;;;;;9640892;23;20190;-86
2023/08/28 15:59:17;;;;;;;2.85;2.65;;;17.10;99.90;;;;;;9639322;23;20602;-86
2023/08/28 16:03:03;;;;;;;3.28;2.60;;;17.10;99.90;;;;;;9642639;23;20503;-86
2023/08/28 16:06:48;;;;;;;4.05;2.25;;;17.10;99.90;;;;;;9640071;23;20209;-86
2023/08/28 16:10:34;;;;;;;2.30;2.10;;;17.10;99.90;;;;;;9641055;23;20590;-87
2023/08/28 16:14:20;;;;;;;2.38;2.17;;;17.10;99.90;;;;;;9614927;23;20200;-87
2023/08/28 16:18:06;;;;;;;2.40;2.20;;;17.10;99.90;;;;;;9616174;23;20496;-87
2023/08/28 16:26:34;;;;;;;2.80;1.98;;;17.10;99.90;;;;;;9642650;23;20170;-86
2023/08/28 16:30:20;;;;;;;2.50;1.50;;;17.00;99.90;;;;;;9613784;23;20165;-86
2023/08/28 16:34:05;;;;;;;0.95;0.95;;;17.00;99.90;;;;;;9592955;23;20723;-85
2023/08/28 16:37:51;;;;;;;0.98;0.90;;;17.00;99.90;;;;;;9592763;23;20155;-86
2023/08/28 16:41:37;;;;;;;1.98;1.35;;;16.90;99.90;;;;;;9593058;23;20162;-87
2023/08/28 16:45:22;;;;;;;1.50;1.25;;;16.90;99.90;;;;;;9591428;23;20646;-85
2023/08/28 16:49:08;;;;;;;1.48;1.13;;;16.90;99.90;;;;;;9617561;23;20165;-86
2023/08/28 16:52:54;;;;;;;1.80;1.02;;;16.80;99.90;;;;;;9618410;23;20218;-86
2023/08/28 16:56:39;;;;;;;1.80;1.17;;;16.80;99.90;;;;;;9617560;23;20185;-86
2023/08/28 17:00:25;;;;;;;2.38;1.30;;;16.80;99.90;;;;;;9595513;23;20147;-87
2023/08/28 17:04:11;;;;;;;2.33;1.27;;;16.80;99.90;;;;;;9594568;23;20236;-85
2023/08/28 17:07:58;;;;;;;0.90;0.90;;;16.80;99.90;;;;;;9593841;23;20154;-86
2023/08/28 17:11:43;;;;;;;1.20;1.10;;;16.80;99.90;;;;;;9593091;23;20170;-87
2023/08/28 17:15:29;;;;;;;1.52;1.08;;;16.80;99.90;;;;;;9591749;23;20201;-86
2023/08/28 17:19:15;;;;;;;0.95;0.95;;;16.80;99.90;;;;;;9592518;23;20155;-87
2023/08/28 17:23:00;;;;;;;1.00;0.80;;;16.70;99.90;;;;;;9594312;23;20147;-87
2023/08/28 17:26:46;;;;;;;4.05;1.00;;;16.70;99.90;;;;;;9592100;23;20183;-86
2023/08/28 17:30:32;;;;;;;1.00;1.00;;;16.60;99.90;;;;;;9592869;23;20159;-86
2023/08/28 17:34:17;;;;;;;1.20;1.05;;;16.60;99.90;;;;;;9615802;23;20194;-84
2023/08/28 17:38:03;;;;;;;2.80;0.90;;;16.60;99.90;;;;;;9608435;23;20162;-86
2023/08/28 17:41:49;;;;;;;1.05;0.88;;;16.60;99.90;;;;;;9611421;23;20231;-86
2023/08/28 17:45:35;;;;;;;1.55;1.00;;;16.50;99.90;;;;;;9610122;23;20184;-89
2023/08/28 17:49:20;;;;;;;0.88;0.88;;;16.60;99.90;;;;;;9610022;23;20620;-87
2023/08/28 17:53:06;;;;;;;2.58;1.20;;;16.50;99.90;;;;;;9612893;23;20205;-86
2023/08/28 17:56:52;;;;;;;2.25;1.13;;;16.50;99.90;;;;;;9635618;23;20173;-86
2023/08/28 18:00:38;;;;;;;2.28;1.48;;;16.50;99.90;;;;;;9635429;23;20174;-86
2023/08/28 18:12:54;;;;;;;2.17;1.20;;;16.50;99.90;;;;;;9639123;23;20206;-87
2023/08/28 18:16:40;;;;;;;2.70;1.98;;;16.40;99.90;;;;;;9636120;23;20208;-86
2023/08/28 18:20:26;;;;;;;4.30;2.00;;;16.50;99.90;;;;;;9639076;23;20241;-88
2023/08/28 18:24:11;;;;;;;2.53;1.50;;;16.40;99.90;;;;;;9638220;23;20177;-86
2023/08/28 18:27:57;;;;;;;2.25;1.17;;;16.40;99.90;;;;;;9610407;23;20158;-85
2023/08/28 18:31:44;;;;;;;2.10;1.20;;;16.40;99.90;;;;;;9610727;23;20505;-86
2023/08/28 18:35:29;;;;;;;0.80;0.77;;;16.30;99.90;;;;;;9611216;23;20198;-87
2023/08/28 18:39:15;;;;;;;2.22;0.98;;;16.30;99.90;;;;;;9612242;23;20153;-87
2023/08/28 18:43:01;;;;;;;1.48;0.90;;;16.30;99.90;;;;;;9611231;23;20178;-86
2023/08/28 18:46:46;;;;;;;2.10;0.70;;;16.30;99.90;;;;;;9617211;23;20193;-86
2023/08/28 18:50:32;;;;;;;1.48;1.10;;;16.30;99.90;;;;;;9660004;23;20154;-85
2023/08/28 18:54:20;;;;;;;1.08;0.90;;;16.20;99.90;;;;;;9641422;23;20209;-86
2023/08/28 18:58:07;;;;;;;2.25;0.80;;;16.20;99.90;;;;;;9613136;23;20542;-86
2023/08/28 19:01:53;;;;;;;1.00;0.80;;;16.20;99.90;;;;;;9611970;23;20146;-85
2023/08/28 19:05:39;;;;;;;1.40;0.88;;;16.20;99.90;;;;;;9612564;23;20189;-85
2023/08/28 19:09:25;;;;;;;1.50;1.40;;;16.10;99.90;;;;;;9611625;23;20154;-85
2023/08/28 19:13:11;;;;;;;1.75;1.20;;;16.10;99.90;;;;;;9637198;23;20555;-85
2023/08/28 19:16:57;;;;;;;1.48;0.88;;;16.10;99.90;;;;;;9611416;23;20157;-86
2023/08/28 19:20:42;;;;;;;1.00;0.90;;;16.00;99.90;;;;;;9613150;23;20605;-85
2023/08/28 19:24:28;;;;;;;1.52;1.10;;;16.00;99.90;;;;;;9612203;23;20781;-85
2023/08/28 19:28:14;;;;;;;1.20;1.10;;;16.00;99.90;;;;;;9614197;23;20238;-86
2023/08/28 19:32:00;;;;;;;0.90;0.90;;;16.00;99.90;;;;;;9614786;23;20168;-87
2023/08/28 19:35:48;;;;;;;1.40;1.30;;;16.00;99.90;;;;;;9614991;23;20264;-86
2023/08/28 19:39:33;;;;;;;1.20;1.10;;;15.90;99.90;;;;;;9614838;23;20175;-85
2023/08/28 19:43:20;;;;;;;1.52;1.20;;;15.90;99.90;;;;;;9615190;23;20186;-86
2023/08/28 19:47:05;;;;;;;2.80;1.20;;;15.90;99.90;;;;;;9614406;23;20605;-88
2023/08/28 19:50:51;;;;;;;1.35;1.23;;;15.90;99.90;;;;;;9612999;23;20490;-85
2023/08/28 19:54:37;;;;;;;1.35;1.10;;;15.90;99.90;;;;;;9637999;23;20180;-84
2023/08/28 19:58:23;;;;;;;1.98;1.33;;;15.90;99.90;;;;;;9612195;23;20177;-87
2023/08/28 20:02:08;;;;;;;1.50;1.40;;;15.90;99.90;;;;;;9612033;23;20660;-86
2023/08/28 20:06:01;;;;;;;1.80;1.50;;;15.90;99.90;;;;;;9611322;23;20185;-85
2023/08/28 20:09:47;;;;;;;2.08;1.55;;;15.90;99.90;;;;;;9638342;23;20228;-87
2023/08/28 20:13:32;;;;;;;1.58;1.40;;;15.90;99.90;;;;;;9637999;23;20178;-85
2023/08/28 20:17:18;;;;;;;1.15;1.15;;;15.80;99.90;;;;;;9611237;23;20162;-87
2023/08/28 20:21:05;;;;;;;3.40;1.85;;;15.80;99.90;;;;;;9637987;23;20145;-85
2023/08/28 20:24:51;;;;;;;1.50;1.40;;;15.80;99.90;;;;;;9637460;23;20216;-87
2023/08/28 20:28:36;;;;;;;1.50;1.40;;;15.80;99.90;;;;;;9611250;23;20162;-87
2023/08/28 20:32:22;;;;;;;4.38;1.50;;;15.80;99.90;;;;;;9609293;23;20166;-86
2023/08/28 20:36:08;;;;;;;1.60;1.30;;;15.80;99.90;;;;;;9611225;23;20221;-86
2023/08/28 20:39:53;;;;;;;1.98;1.30;;;15.70;99.90;;;;;;9610605;23;20182;-85
2023/08/28 20:43:39;;;;;;;2.78;1.60;;;15.70;99.90;;;;;;9611515;23;20524;-86
2023/08/28 20:47:26;;;;;;;1.60;1.50;;;15.70;99.90;;;;;;9610707;23;20177;-86
2023/08/28 20:51:11;;;;;;;2.10;1.80;;;15.70;99.90;;;;;;9612294;23;20157;-85
2023/08/28 20:54:57;;;;;;;2.15;2.00;;;15.70;99.90;;;;;;9612742;23;20324;-85
2023/08/28 20:58:43;;;;;;;1.92;1.77;;;15.70;99.90;;;;;;9637856;23;20153;-86
2023/08/28 21:02:29;;;;;;;1.80;1.70;;;15.70;99.90;;;;;;9610798;23;20186;-86
2023/08/28 21:06:14;;;;;;;1.50;1.40;;;15.70;99.90;;;;;;9610804;23;20166;-86
2023/08/28 21:10:00;;;;;;;1.63;1.50;;;15.70;99.90;;;;;;9637282;23;20184;-85
2023/08/28 21:13:46;;;;;;;1.73;1.63;;;15.60;99.90;;;;;;9610158;23;20189;-85
2023/08/28 21:17:32;;;;;;;1.52;1.42;;;15.60;99.90;;;;;;9609584;23;20154;-86
2023/08/28 21:21:18;;;;;;;1.50;1.40;;;15.60;99.90;;;;;;9611470;23;20158;-86
2023/08/28 21:25:04;;;;;;;2.13;1.50;;;15.60;99.90;;;;;;9611277;23;20182;-87
2023/08/28 21:28:50;;;;;;;2.57;1.77;;;15.60;99.90;;;;;;9610434;23;20672;-86
2023/08/28 21:32:35;;;;;;;2.13;1.92;;;15.60;99.90;;;;;;9611894;23;20558;-87
2023/08/28 21:36:21;;;;;;;2.28;1.83;;;15.60;99.90;;;;;;9611716;23;20155;-87
2023/08/28 21:40:07;;;;;;;2.15;2.00;;;15.60;99.90;;;;;;9611504;23;20158;-86
2023/08/28 21:43:53;;;;;;;2.87;2.20;;;15.50;99.90;;;;;;9608532;23;20182;-86
2023/08/28 21:47:38;;;;;;;2.65;2.00;;;15.50;99.90;;;;;;9610971;23;20201;-86
2023/08/28 21:51:24;;;;;;;2.17;1.98;;;15.50;99.90;;;;;;9609000;23;20240;-88
2023/08/28 21:55:10;;;;;;;2.28;1.95;;;15.50;99.90;;;;;;9638107;23;20185;-85
2023/08/28 21:58:55;;;;;;;2.47;2.28;;;15.50;99.90;;;;;;9637494;23;20158;-87
2023/08/28 22:02:41;;;;;;;2.63;2.28;;;15.40;99.90;;;;;;9610324;23;20182;-86
2023/08/28 22:06:27;;;;;;;2.80;2.50;;;15.40;99.90;;;;;;9610626;23;20495;-86
2023/08/28 22:10:12;;;;;;;5.07;2.28;;;15.40;99.90;;;;;;9636704;23;20508;-86
2023/08/28 22:13:58;;;;;;;2.80;2.58;;;15.40;99.90;;;;;;9610474;23;20186;-86
2023/08/28 22:17:45;;;;;;;2.38;2.17;;;15.40;99.90;;;;;;9637416;23;20580;-87
2023/08/28 22:21:31;;;;;;;2.30;2.10;;;15.40;99.90;;;;;;9637830;23;20233;-87
2023/08/28 22:25:17;;;;;;;2.38;2.17;;;15.40;99.90;;;;;;9638855;23;20177;-86
2023/08/28 22:29:03;;;;;;;2.83;2.20;;;15.30;99.90;;;;;;9681381;22;20134;-86
2023/08/28 22:32:50;;;;;;;4.60;2.40;;;15.30;99.90;;;;;;9651250;22;20190;-86
2023/08/28 22:36:35;;;;;;;3.08;2.60;;;15.30;99.90;;;;;;9639653;23;20146;-85
2023/08/28 22:40:21;;;;;;;2.78;2.50;;;15.30;99.90;;;;;;9611639;23;20917;-86
2023/08/28 22:44:07;;;;;;;4.50;3.47;;;15.30;99.90;;;;;;9610548;23;20777;-87
2023/08/28 22:47:52;;;;;;;3.20;2.90;;;15.30;99.90;;;;;;9636759;23;20154;-85
2023/08/28 22:51:38;;;;;;;3.67;2.50;;;15.20;99.90;;;;;;9610651;23;20169;-85
2023/08/28 22:55:24;;;;;;;3.67;2.60;;;15.20;99.90;;;;;;9609993;23;20201;-86
2023/08/28 22:59:09;;;;;;;2.85;2.50;;;15.10;99.90;;;;;;9610106;23;20245;-86
2023/08/28 23:02:55;;;;;;;2.70;2.50;;;15.20;99.90;;;;;;9609732;23;20178;-86
2023/08/28 23:06:40;;;;;;;3.50;2.63;;;15.20;99.90;;;;;;9636839;23;20150;-87
2023/08/28 23:10:26;;;;;;;2.60;2.40;;;15.20;99.90;;;;;;9610483;23;20236;-85
2023/08/28 23:14:12;;;;;;;4.38;2.30;;;15.20;99.90;;;;;;9610166;23;20181;-86
2023/08/28 23:17:57;;;;;;;2.83;2.28;;;15.20;99.90;;;;;;9636934;23;20850;-85
2023/08/28 23:21:43;;;;;;;2.30;2.10;;;15.20;99.90;;;;;;9610230;23;20959;-86
2023/08/28 23:25:29;;;;;;;3.75;2.22;;;15.20;99.90;;;;;;9610418;23;20212;-85
2023/08/28 23:29:14;;;;;;;2.10;2.00;;;15.20;99.90;;;;;;9636136;23;20185;-86
2023/08/28 23:33:03;;;;;;;2.25;2.05;;;15.20;99.90;;;;;;9610137;23;20186;-85
2023/08/28 23:36:49;;;;;;;2.67;1.90;;;15.20;99.90;;;;;;9609867;23;20162;-86
2023/08/28 23:40:35;;;;;;;3.30;1.98;;;15.20;99.90;;;;;;9610063;23;20212;-85
2023/08/28 23:44:23;;;;;;;2.30;2.10;;;15.20;99.90;;;;;;9609844;23;20216;-87
2023/08/28 23:48:08;;;;;;;4.30;2.00;;;15.20;99.90;;;;;;9635889;23;20154;-85
2023/08/28 23:51:54;;;;;;;3.35;2.30;;;15.10;99.90;;;;;;9636636;23;20158;-86
2023/08/28 23:55:40;;;;;;;2.58;2.22;;;15.20;99.90;;;;;;9610158;23;20185;-85
2023/08/28 23:59:25;;;;;;;2.35;2.20;;;15.20;99.90;;;;;;9609323;23;20169;-86
